sensor_id;sensor_type;location;lat;lon;timestamp;P1;durP1;ratioP1;P2;durP2;ratioP2
81310;SDS011;70779;52.506;5.492;2023-09-12T04:45:50;130.20;;;32.30;;
81310;SDS011;70779;52.506;5.492;2023-09-12T04:48:16;210.35;;;33.85;;
81310;SDS011;70779;52.506;5.492;2023-09-12T04:50:43;143.15;;;33.08;;
81310;SDS011;70779;52.506;5.492;2023-09-12T04:53:09;91.80;;;32.38;;
81310;SDS011;70779;52.506;5.492;2023-09-12T04:55:36;110.38;;;32.72;;
81310;SDS011;70779;52.506;5.492;2023-09-12T04:58:04;100.13;;;34.28;;
81310;SDS011;70779;52.506;5.492;2023-09-12T05:00:30;91.35;;;31.45;;
81310;SDS011;70779;52.506;5.492;2023-09-12T05:02:57;95.43;;;35.08;;
81310;SDS011;70779;52.506;5.492;2023-09-12T05:05:23;89.63;;;31.08;;
81310;SDS011;70779;52.506;5.492;2023-09-12T05:07:50;86.53;;;31.95;;
81310;SDS011;70779;52.506;5.492;2023-09-12T05:10:19;96.55;;;34.10;;
81310;SDS011;70779;52.506;5.492;2023-09-12T05:12:45;86.60;;;31.35;;
81310;SDS011;70779;52.506;5.492;2023-09-12T05:15:11;88.70;;;34.20;;
81310;SDS011;70779;52.506;5.492;2023-09-12T05:17:37;88.95;;;29.52;;
81310;SDS011;70779;52.506;5.492;2023-09-12T05:20:04;92.40;;;30.63;;
81310;SDS011;70779;52.506;5.492;2023-09-12T05:22:30;83.85;;;31.23;;
81310;SDS011;70779;52.506;5.492;2023-09-12T05:24:56;81.80;;;33.42;;
81310;SDS011;70779;52.506;5.492;2023-09-12T05:27:22;80.82;;;31.15;;
81310;SDS011;70779;52.506;5.492;2023-09-12T05:29:48;73.07;;;31.02;;
81310;SDS011;70779;52.506;5.492;2023-09-12T05:32:15;74.97;;;30.20;;
81310;SDS011;70779;52.506;5.492;2023-09-12T05:34:42;76.25;;;31.83;;
81310;SDS011;70779;52.506;5.492;2023-09-12T05:37:08;70.72;;;30.35;;
81310;SDS011;70779;52.506;5.492;2023-09-12T05:39:34;72.30;;;29.80;;
81310;SDS011;70779;52.506;5.492;2023-09-12T05:42:00;78.43;;;32.80;;
81310;SDS011;70779;52.506;5.492;2023-09-12T05:44:26;79.88;;;30.42;;
81310;SDS011;70779;52.506;5.492;2023-09-12T05:46:52;78.25;;;32.55;;
81310;SDS011;70779;52.506;5.492;2023-09-12T05:49:19;69.88;;;29.35;;
81310;SDS011;70779;52.506;5.492;2023-09-12T05:51:45;72.35;;;31.23;;
81310;SDS011;70779;52.506;5.492;2023-09-12T05:54:11;74.63;;;31.67;;
81310;SDS011;70779;52.506;5.492;2023-09-12T05:56:39;79.30;;;33.40;;
81310;SDS011;70779;52.506;5.492;2023-09-12T05:59:06;71.05;;;30.80;;
81310;SDS011;70779;52.506;5.492;2023-09-12T06:01:32;74.40;;;32.25;;
81310;SDS011;70779;52.506;5.492;2023-09-12T06:03:58;74.45;;;31.67;;
81310;SDS011;70779;52.506;5.492;2023-09-12T06:06:24;81.07;;;31.25;;
81310;SDS011;70779;52.506;5.492;2023-09-12T06:08:50;72.38;;;31.25;;
81310;SDS011;70779;52.506;5.492;2023-09-12T06:11:18;65.28;;;28.63;;
81310;SDS011;70779;52.506;5.492;2023-09-12T06:13:44;68.03;;;29.40;;
81310;SDS011;70779;52.506;5.492;2023-09-12T06:16:10;67.63;;;30.30;;
81310;SDS011;70779;52.506;5.492;2023-09-12T06:18:36;62.85;;;28.73;;
81310;SDS011;70779;52.506;5.492;2023-09-12T06:21:02;62.42;;;28.10;;
81310;SDS011;70779;52.506;5.492;2023-09-12T06:23:30;63.75;;;29.75;;
81310;SDS011;70779;52.506;5.492;2023-09-12T06:25:56;64.65;;;29.08;;
81310;SDS011;70779;52.506;5.492;2023-09-12T06:28:29;60.97;;;27.52;;
81310;SDS011;70779;52.506;5.492;2023-09-12T06:30:56;64.82;;;28.98;;
81310;SDS011;70779;52.506;5.492;2023-09-12T06:33:23;57.35;;;28.77;;
81310;SDS011;70779;52.506;5.492;2023-09-12T06:35:52;58.15;;;27.60;;
81310;SDS011;70779;52.506;5.492;2023-09-12T06:38:19;61.13;;;27.70;;
81310;SDS011;70779;52.506;5.492;2023-09-12T06:40:46;58.22;;;25.40;;
81310;SDS011;70779;52.506;5.492;2023-09-12T06:43:13;57.55;;;28.30;;
81310;SDS011;70779;52.506;5.492;2023-09-12T06:45:42;53.60;;;25.85;;
81310;SDS011;70779;52.506;5.492;2023-09-12T06:48:09;55.83;;;27.90;;
81310;SDS011;70779;52.506;5.492;2023-09-12T06:50:35;59.72;;;27.70;;
81310;SDS011;70779;52.506;5.492;2023-09-12T06:53:04;57.38;;;28.25;;
81310;SDS011;70779;52.506;5.492;2023-09-12T06:55:32;57.92;;;28.10;;
81310;SDS011;70779;52.506;5.492;2023-09-12T06:57:58;57.30;;;29.17;;
81310;SDS011;70779;52.506;5.492;2023-09-12T07:00:24;53.22;;;28.15;;
81310;SDS011;70779;52.506;5.492;2023-09-12T07:02:52;55.40;;;29.15;;
81310;SDS011;70779;52.506;5.492;2023-09-12T07:05:18;54.42;;;29.38;;
81310;SDS011;70779;52.506;5.492;2023-09-12T07:07:44;55.15;;;27.52;;
81310;SDS011;70779;52.506;5.492;2023-09-12T07:10:10;56.88;;;29.42;;
81310;SDS011;70779;52.506;5.492;2023-09-12T07:12:37;52.63;;;28.38;;
81310;SDS011;70779;52.506;5.492;2023-09-12T07:15:03;51.97;;;27.65;;
81310;SDS011;70779;52.506;5.492;2023-09-12T07:17:30;50.30;;;26.98;;
81310;SDS011;70779;52.506;5.492;2023-09-12T07:19:56;51.00;;;25.58;;
81310;SDS011;70779;52.506;5.492;2023-09-12T07:22:22;52.63;;;27.60;;
81310;SDS011;70779;52.506;5.492;2023-09-12T07:24:48;49.35;;;25.15;;
81310;SDS011;70779;52.506;5.492;2023-09-12T07:27:14;48.72;;;25.25;;
81310;SDS011;70779;52.506;5.492;2023-09-12T07:29:41;49.45;;;25.10;;
81310;SDS011;70779;52.506;5.492;2023-09-12T07:32:07;47.80;;;24.90;;
81310;SDS011;70779;52.506;5.492;2023-09-12T07:34:33;41.00;;;23.48;;
81310;SDS011;70779;52.506;5.492;2023-09-12T07:36:59;44.30;;;23.80;;
81310;SDS011;70779;52.506;5.492;2023-09-12T07:39:25;48.72;;;26.65;;
81310;SDS011;70779;52.506;5.492;2023-09-12T07:41:51;44.50;;;25.85;;
81310;SDS011;70779;52.506;5.492;2023-09-12T07:44:17;47.60;;;24.40;;
81310;SDS011;70779;52.506;5.492;2023-09-12T07:46:43;46.70;;;26.52;;
81310;SDS011;70779;52.506;5.492;2023-09-12T07:49:09;44.65;;;24.45;;
81310;SDS011;70779;52.506;5.492;2023-09-12T07:51:35;49.60;;;25.88;;
81310;SDS011;70779;52.506;5.492;2023-09-12T07:54:01;45.00;;;23.67;;
81310;SDS011;70779;52.506;5.492;2023-09-12T07:56:28;42.85;;;22.83;;
81310;SDS011;70779;52.506;5.492;2023-09-12T07:58:56;39.92;;;23.33;;
81310;SDS011;70779;52.506;5.492;2023-09-12T08:01:23;41.38;;;23.65;;
81310;SDS011;70779;52.506;5.492;2023-09-12T08:03:49;39.70;;;21.13;;
81310;SDS011;70779;52.506;5.492;2023-09-12T08:06:15;38.95;;;21.17;;
81310;SDS011;70779;52.506;5.492;2023-09-12T08:08:41;36.17;;;21.10;;
81310;SDS011;70779;52.506;5.492;2023-09-12T08:11:07;33.72;;;19.85;;
81310;SDS011;70779;52.506;5.492;2023-09-12T08:13:33;33.78;;;19.60;;
81310;SDS011;70779;52.506;5.492;2023-09-12T08:16:00;35.75;;;19.45;;
81310;SDS011;70779;52.506;5.492;2023-09-12T08:18:27;31.95;;;19.40;;
81310;SDS011;70779;52.506;5.492;2023-09-12T08:20:55;35.33;;;21.02;;
81310;SDS011;70779;52.506;5.492;2023-09-12T08:23:21;33.03;;;20.60;;
81310;SDS011;70779;52.506;5.492;2023-09-12T08:25:47;35.92;;;21.63;;
81310;SDS011;70779;52.506;5.492;2023-09-12T08:28:14;35.60;;;21.20;;
81310;SDS011;70779;52.506;5.492;2023-09-12T08:30:40;37.85;;;19.27;;
81310;SDS011;70779;52.506;5.492;2023-09-12T08:33:06;35.85;;;20.45;;
81310;SDS011;70779;52.506;5.492;2023-09-12T08:35:32;34.08;;;20.10;;
81310;SDS011;70779;52.506;5.492;2023-09-12T08:37:58;36.42;;;19.20;;
81310;SDS011;70779;52.506;5.492;2023-09-12T08:40:24;34.67;;;20.30;;
81310;SDS011;70779;52.506;5.492;2023-09-12T08:42:51;35.67;;;20.55;;
81310;SDS011;70779;52.506;5.492;2023-09-12T08:45:18;36.45;;;21.88;;
81310;SDS011;70779;52.506;5.492;2023-09-12T08:47:46;32.95;;;19.10;;
81310;SDS011;70779;52.506;5.492;2023-09-12T08:50:15;35.60;;;20.00;;
81310;SDS011;70779;52.506;5.492;2023-09-12T08:52:42;34.78;;;20.48;;
81310;SDS011;70779;52.506;5.492;2023-09-12T08:55:11;35.08;;;18.98;;
81310;SDS011;70779;52.506;5.492;2023-09-12T08:57:40;33.33;;;19.60;;
81310;SDS011;70779;52.506;5.492;2023-09-12T09:00:08;31.92;;;18.30;;
81310;SDS011;70779;52.506;5.492;2023-09-12T09:02:36;31.92;;;18.52;;
81310;SDS011;70779;52.506;5.492;2023-09-12T09:05:03;31.15;;;19.20;;
81310;SDS011;70779;52.506;5.492;2023-09-12T09:07:34;32.60;;;18.15;;
81310;SDS011;70779;52.506;5.492;2023-09-12T09:10:05;33.53;;;18.35;;
81310;SDS011;70779;52.506;5.492;2023-09-12T09:12:33;32.00;;;17.27;;
81310;SDS011;70779;52.506;5.492;2023-09-12T09:15:45;30.98;;;17.60;;
81310;SDS011;70779;52.506;5.492;2023-09-12T09:17:49;29.85;;;16.30;;
81310;SDS011;70779;52.506;5.492;2023-09-12T09:20:21;26.73;;;15.82;;
81310;SDS011;70779;52.506;5.492;2023-09-12T09:25:24;30.60;;;16.85;;
81310;SDS011;70779;52.506;5.492;2023-09-12T09:27:50;28.83;;;16.45;;
81310;SDS011;70779;52.506;5.492;2023-09-12T09:30:16;25.83;;;14.77;;
81310;SDS011;70779;52.506;5.492;2023-09-12T09:32:44;25.60;;;15.10;;
81310;SDS011;70779;52.506;5.492;2023-09-12T09:35:11;26.38;;;14.95;;
81310;SDS011;70779;52.506;5.492;2023-09-12T09:37:37;26.83;;;16.17;;
81310;SDS011;70779;52.506;5.492;2023-09-12T09:40:05;23.70;;;15.45;;
81310;SDS011;70779;52.506;5.492;2023-09-12T09:42:32;24.50;;;15.23;;
81310;SDS011;70779;52.506;5.492;2023-09-12T09:44:58;23.50;;;15.00;;
81310;SDS011;70779;52.506;5.492;2023-09-12T09:47:25;26.58;;;15.35;;
81310;SDS011;70779;52.506;5.492;2023-09-12T09:49:51;22.50;;;15.23;;
81310;SDS011;70779;52.506;5.492;2023-09-12T09:52:24;25.98;;;15.10;;
81310;SDS011;70779;52.506;5.492;2023-09-12T09:54:52;23.45;;;14.52;;
81310;SDS011;70779;52.506;5.492;2023-09-12T09:57:18;22.83;;;13.82;;
81310;SDS011;70779;52.506;5.492;2023-09-12T09:59:48;23.70;;;15.50;;
81310;SDS011;70779;52.506;5.492;2023-09-12T10:02:17;26.13;;;16.00;;
81310;SDS011;70779;52.506;5.492;2023-09-12T10:07:15;21.85;;;13.57;;
81310;SDS011;70779;52.506;5.492;2023-09-12T10:09:42;25.58;;;14.30;;
81310;SDS011;70779;52.506;5.492;2023-09-12T10:12:09;24.23;;;14.82;;
81310;SDS011;70779;52.506;5.492;2023-09-12T10:14:36;24.13;;;14.45;;
81310;SDS011;70779;52.506;5.492;2023-09-12T10:17:04;24.83;;;15.30;;
81310;SDS011;70779;52.506;5.492;2023-09-12T10:19:43;25.95;;;14.95;;
81310;SDS011;70779;52.506;5.492;2023-09-12T10:22:22;25.10;;;15.23;;
81310;SDS011;70779;52.506;5.492;2023-09-12T10:24:51;22.85;;;14.35;;
81310;SDS011;70779;52.506;5.492;2023-09-12T10:27:19;27.67;;;16.00;;
81310;SDS011;70779;52.506;5.492;2023-09-12T10:29:45;25.05;;;15.65;;
81310;SDS011;70779;52.506;5.492;2023-09-12T10:32:14;24.98;;;16.98;;
81310;SDS011;70779;52.506;5.492;2023-09-12T10:34:41;24.08;;;16.50;;
81310;SDS011;70779;52.506;5.492;2023-09-12T10:37:11;29.23;;;15.20;;
81310;SDS011;70779;52.506;5.492;2023-09-12T10:39:42;28.30;;;16.05;;
81310;SDS011;70779;52.506;5.492;2023-09-12T10:42:09;23.73;;;14.65;;
81310;SDS011;70779;52.506;5.492;2023-09-12T10:44:35;22.48;;;14.15;;
81310;SDS011;70779;52.506;5.492;2023-09-12T10:47:02;22.08;;;12.95;;
81310;SDS011;70779;52.506;5.492;2023-09-12T10:49:30;22.02;;;14.32;;
81310;SDS011;70779;52.506;5.492;2023-09-12T10:51:56;24.73;;;15.27;;
81310;SDS011;70779;52.506;5.492;2023-09-12T10:54:23;24.15;;;16.13;;
81310;SDS011;70779;52.506;5.492;2023-09-12T10:57:03;28.35;;;16.38;;
81310;SDS011;70779;52.506;5.492;2023-09-12T10:59:31;26.55;;;15.85;;
81310;SDS011;70779;52.506;5.492;2023-09-12T11:04:59;20.20;;;13.88;;
81310;SDS011;70779;52.506;5.492;2023-09-12T11:12:45;22.50;;;14.05;;
81310;SDS011;70779;52.506;5.492;2023-09-12T11:15:14;22.25;;;14.40;;
81310;SDS011;70779;52.506;5.492;2023-09-12T11:17:46;25.10;;;15.73;;
81310;SDS011;70779;52.506;5.492;2023-09-12T11:22:44;21.27;;;14.27;;
81310;SDS011;70779;52.506;5.492;2023-09-12T11:27:45;21.50;;;13.73;;
81310;SDS011;70779;52.506;5.492;2023-09-12T11:30:28;15.15;;;9.82;;
81310;SDS011;70779;52.506;5.492;2023-09-12T11:32:56;20.10;;;11.75;;
81310;SDS011;70779;52.506;5.492;2023-09-12T11:35:24;22.73;;;13.98;;
81310;SDS011;70779;52.506;5.492;2023-09-12T11:37:53;23.02;;;13.68;;
81310;SDS011;70779;52.506;5.492;2023-09-12T11:40:41;24.10;;;14.90;;
81310;SDS011;70779;52.506;5.492;2023-09-12T11:43:19;21.92;;;13.55;;
81310;SDS011;70779;52.506;5.492;2023-09-12T11:45:47;24.17;;;14.30;;
81310;SDS011;70779;52.506;5.492;2023-09-12T11:48:13;22.25;;;15.38;;
81310;SDS011;70779;52.506;5.492;2023-09-12T11:50:39;20.02;;;14.68;;
81310;SDS011;70779;52.506;5.492;2023-09-12T11:53:08;26.90;;;16.13;;
81310;SDS011;70779;52.506;5.492;2023-09-12T11:55:37;20.98;;;13.30;;
81310;SDS011;70779;52.506;5.492;2023-09-12T11:58:12;22.98;;;13.80;;
81310;SDS011;70779;52.506;5.492;2023-09-12T12:00:44;24.05;;;15.20;;
81310;SDS011;70779;52.506;5.492;2023-09-12T12:03:21;20.10;;;13.70;;
81310;SDS011;70779;52.506;5.492;2023-09-12T12:05:49;16.35;;;11.90;;
81310;SDS011;70779;52.506;5.492;2023-09-12T12:08:16;20.35;;;13.05;;
81310;SDS011;70779;52.506;5.492;2023-09-12T12:10:43;19.83;;;13.52;;
81310;SDS011;70779;52.506;5.492;2023-09-12T12:13:18;19.70;;;14.13;;
81310;SDS011;70779;52.506;5.492;2023-09-12T12:15:45;13.48;;;9.25;;
81310;SDS011;70779;52.506;5.492;2023-09-12T12:18:11;18.50;;;12.50;;
81310;SDS011;70779;52.506;5.492;2023-09-12T12:20:37;16.63;;;10.60;;
81310;SDS011;70779;52.506;5.492;2023-09-12T12:23:04;17.30;;;11.05;;
81310;SDS011;70779;52.506;5.492;2023-09-12T12:25:33;16.38;;;9.88;;
81310;SDS011;70779;52.506;5.492;2023-09-12T12:28:00;18.48;;;11.38;;
81310;SDS011;70779;52.506;5.492;2023-09-12T12:30:30;15.95;;;10.05;;
81310;SDS011;70779;52.506;5.492;2023-09-12T12:33:00;13.73;;;7.53;;
81310;SDS011;70779;52.506;5.492;2023-09-12T12:35:28;13.02;;;8.60;;
81310;SDS011;70779;52.506;5.492;2023-09-12T12:37:54;8.35;;;5.05;;
81310;SDS011;70779;52.506;5.492;2023-09-12T12:40:21;8.50;;;4.93;;
81310;SDS011;70779;52.506;5.492;2023-09-12T12:42:48;6.75;;;5.75;;
81310;SDS011;70779;52.506;5.492;2023-09-12T12:45:15;9.88;;;6.60;;
81310;SDS011;70779;52.506;5.492;2023-09-12T12:47:43;12.05;;;8.38;;
81310;SDS011;70779;52.506;5.492;2023-09-12T12:52:45;19.77;;;10.73;;
81310;SDS011;70779;52.506;5.492;2023-09-12T12:55:13;18.35;;;11.10;;
81310;SDS011;70779;52.506;5.492;2023-09-12T12:57:42;19.15;;;12.27;;
81310;SDS011;70779;52.506;5.492;2023-09-12T13:00:10;26.35;;;14.15;;
81310;SDS011;70779;52.506;5.492;2023-09-12T13:02:37;23.05;;;15.38;;
81310;SDS011;70779;52.506;5.492;2023-09-12T13:05:04;25.00;;;16.63;;
81310;SDS011;70779;52.506;5.492;2023-09-12T13:07:34;20.50;;;14.35;;
81310;SDS011;70779;52.506;5.492;2023-09-12T13:10:01;24.75;;;16.05;;
81310;SDS011;70779;52.506;5.492;2023-09-12T13:12:30;24.17;;;15.93;;
81310;SDS011;70779;52.506;5.492;2023-09-12T13:14:56;27.10;;;17.88;;
81310;SDS011;70779;52.506;5.492;2023-09-12T13:17:23;23.05;;;16.50;;
81310;SDS011;70779;52.506;5.492;2023-09-12T13:19:49;25.35;;;15.88;;
81310;SDS011;70779;52.506;5.492;2023-09-12T13:22:15;23.48;;;15.05;;
81310;SDS011;70779;52.506;5.492;2023-09-12T13:24:41;24.15;;;13.60;;
81310;SDS011;70779;52.506;5.492;2023-09-12T13:27:07;27.95;;;16.65;;
81310;SDS011;70779;52.506;5.492;2023-09-12T13:29:33;25.08;;;14.77;;
81310;SDS011;70779;52.506;5.492;2023-09-12T13:31:59;22.50;;;13.00;;
81310;SDS011;70779;52.506;5.492;2023-09-12T13:34:25;22.02;;;15.10;;
81310;SDS011;70779;52.506;5.492;2023-09-12T13:36:51;25.15;;;15.45;;
81310;SDS011;70779;52.506;5.492;2023-09-12T13:39:17;31.23;;;18.13;;
81310;SDS011;70779;52.506;5.492;2023-09-12T13:41:44;26.50;;;17.08;;
81310;SDS011;70779;52.506;5.492;2023-09-12T13:44:10;24.83;;;17.88;;
81310;SDS011;70779;52.506;5.492;2023-09-12T13:46:36;23.38;;;16.20;;
81310;SDS011;70779;52.506;5.492;2023-09-12T13:49:02;24.30;;;15.23;;
81310;SDS011;70779;52.506;5.492;2023-09-12T13:51:29;24.75;;;15.70;;
81310;SDS011;70779;52.506;5.492;2023-09-12T13:53:55;19.67;;;12.23;;
81310;SDS011;70779;52.506;5.492;2023-09-12T13:56:21;21.73;;;12.48;;
81310;SDS011;70779;52.506;5.492;2023-09-12T13:58:47;14.25;;;9.45;;
81310;SDS011;70779;52.506;5.492;2023-09-12T14:01:13;15.40;;;9.00;;
81310;SDS011;70779;52.506;5.492;2023-09-12T14:03:41;15.27;;;10.00;;
81310;SDS011;70779;52.506;5.492;2023-09-12T14:06:07;16.75;;;10.57;;
81310;SDS011;70779;52.506;5.492;2023-09-12T14:08:33;14.07;;;9.23;;
81310;SDS011;70779;52.506;5.492;2023-09-12T14:10:59;16.20;;;10.27;;
81310;SDS011;70779;52.506;5.492;2023-09-12T14:13:26;17.25;;;10.23;;
81310;SDS011;70779;52.506;5.492;2023-09-12T14:15:52;15.40;;;11.32;;
81310;SDS011;70779;52.506;5.492;2023-09-12T14:18:18;13.73;;;9.32;;
81310;SDS011;70779;52.506;5.492;2023-09-12T14:20:45;16.25;;;11.50;;
81310;SDS011;70779;52.506;5.492;2023-09-12T14:23:12;15.57;;;11.30;;
81310;SDS011;70779;52.506;5.492;2023-09-12T14:25:38;13.75;;;10.25;;
81310;SDS011;70779;52.506;5.492;2023-09-12T14:28:04;18.88;;;11.27;;
81310;SDS011;70779;52.506;5.492;2023-09-12T14:30:30;13.05;;;9.43;;
81310;SDS011;70779;52.506;5.492;2023-09-12T14:33:01;12.18;;;7.82;;
81310;SDS011;70779;52.506;5.492;2023-09-12T14:35:28;13.52;;;9.18;;
81310;SDS011;70779;52.506;5.492;2023-09-12T14:37:55;15.35;;;10.73;;
81310;SDS011;70779;52.506;5.492;2023-09-12T14:40:21;15.88;;;9.88;;
81310;SDS011;70779;52.506;5.492;2023-09-12T14:42:47;17.98;;;11.43;;
81310;SDS011;70779;52.506;5.492;2023-09-12T14:45:13;17.85;;;11.88;;
81310;SDS011;70779;52.506;5.492;2023-09-12T14:47:40;14.65;;;10.02;;
81310;SDS011;70779;52.506;5.492;2023-09-12T14:50:06;18.88;;;11.13;;
81310;SDS011;70779;52.506;5.492;2023-09-12T14:52:34;14.77;;;9.93;;
81310;SDS011;70779;52.506;5.492;2023-09-12T14:55:00;17.10;;;8.32;;
81310;SDS011;70779;52.506;5.492;2023-09-12T14:57:27;13.32;;;9.23;;
81310;SDS011;70779;52.506;5.492;2023-09-12T14:59:54;12.50;;;7.90;;
81310;SDS011;70779;52.506;5.492;2023-09-12T15:02:21;10.70;;;7.10;;
81310;SDS011;70779;52.506;5.492;2023-09-12T15:04:47;9.00;;;5.88;;
81310;SDS011;70779;52.506;5.492;2023-09-12T15:07:13;10.90;;;5.70;;
81310;SDS011;70779;52.506;5.492;2023-09-12T15:09:39;12.43;;;7.18;;
81310;SDS011;70779;52.506;5.492;2023-09-12T15:12:05;9.15;;;5.88;;
81310;SDS011;70779;52.506;5.492;2023-09-12T15:14:32;13.07;;;8.70;;
81310;SDS011;70779;52.506;5.492;2023-09-12T15:16:59;15.13;;;10.38;;
81310;SDS011;70779;52.506;5.492;2023-09-12T15:19:25;16.23;;;10.85;;
81310;SDS011;70779;52.506;5.492;2023-09-12T15:21:51;17.13;;;11.00;;
81310;SDS011;70779;52.506;5.492;2023-09-12T15:24:17;16.58;;;11.02;;
81310;SDS011;70779;52.506;5.492;2023-09-12T15:26:43;16.27;;;11.95;;
81310;SDS011;70779;52.506;5.492;2023-09-12T15:29:09;20.98;;;11.52;;
81310;SDS011;70779;52.506;5.492;2023-09-12T15:31:36;19.25;;;11.85;;
81310;SDS011;70779;52.506;5.492;2023-09-12T15:34:02;21.60;;;13.55;;
81310;SDS011;70779;52.506;5.492;2023-09-12T15:36:28;19.85;;;11.98;;
81310;SDS011;70779;52.506;5.492;2023-09-12T15:39:01;20.10;;;12.68;;
81310;SDS011;70779;52.506;5.492;2023-09-12T15:41:28;18.80;;;13.45;;
81310;SDS011;70779;52.506;5.492;2023-09-12T15:43:54;23.85;;;14.65;;
81310;SDS011;70779;52.506;5.492;2023-09-12T15:46:20;15.95;;;11.98;;
81310;SDS011;70779;52.506;5.492;2023-09-12T15:48:48;17.33;;;11.35;;
81310;SDS011;70779;52.506;5.492;2023-09-12T15:51:14;12.75;;;8.88;;
81310;SDS011;70779;52.506;5.492;2023-09-12T15:53:41;11.25;;;6.22;;
81310;SDS011;70779;52.506;5.492;2023-09-12T15:56:07;10.30;;;6.07;;
81310;SDS011;70779;52.506;5.492;2023-09-12T15:58:33;13.30;;;8.18;;
81310;SDS011;70779;52.506;5.492;2023-09-12T16:00:59;6.32;;;4.18;;
81310;SDS011;70779;52.506;5.492;2023-09-12T16:03:28;9.27;;;5.85;;
81310;SDS011;70779;52.506;5.492;2023-09-12T16:05:54;6.63;;;4.65;;
81310;SDS011;70779;52.506;5.492;2023-09-12T16:08:20;11.82;;;5.40;;
81310;SDS011;70779;52.506;5.492;2023-09-12T16:10:46;9.00;;;5.70;;
81310;SDS011;70779;52.506;5.492;2023-09-12T16:13:12;8.65;;;5.38;;
81310;SDS011;70779;52.506;5.492;2023-09-12T16:15:39;10.25;;;6.32;;
81310;SDS011;70779;52.506;5.492;2023-09-12T16:18:05;9.07;;;6.10;;
81310;SDS011;70779;52.506;5.492;2023-09-12T16:20:31;8.75;;;5.93;;
81310;SDS011;70779;52.506;5.492;2023-09-12T16:22:57;7.57;;;5.10;;
81310;SDS011;70779;52.506;5.492;2023-09-12T16:25:23;10.07;;;5.53;;
81310;SDS011;70779;52.506;5.492;2023-09-12T16:27:50;9.93;;;6.18;;
81310;SDS011;70779;52.506;5.492;2023-09-12T16:30:16;7.85;;;6.45;;
81310;SDS011;70779;52.506;5.492;2023-09-12T16:32:42;10.60;;;7.18;;
81310;SDS011;70779;52.506;5.492;2023-09-12T16:35:08;12.73;;;8.15;;
81310;SDS011;70779;52.506;5.492;2023-09-12T16:37:34;11.40;;;7.78;;
81310;SDS011;70779;52.506;5.492;2023-09-12T16:40:01;12.18;;;8.30;;
81310;SDS011;70779;52.506;5.492;2023-09-12T16:42:29;14.55;;;8.90;;
81310;SDS011;70779;52.506;5.492;2023-09-12T16:44:57;12.45;;;9.00;;
81310;SDS011;70779;52.506;5.492;2023-09-12T16:47:28;11.82;;;8.43;;
81310;SDS011;70779;52.506;5.492;2023-09-12T16:49:56;12.70;;;9.23;;
81310;SDS011;70779;52.506;5.492;2023-09-12T16:52:22;11.57;;;8.82;;
81310;SDS011;70779;52.506;5.492;2023-09-12T16:54:48;12.32;;;9.40;;
81310;SDS011;70779;52.506;5.492;2023-09-12T16:57:14;11.45;;;8.20;;
81310;SDS011;70779;52.506;5.492;2023-09-12T16:59:41;10.98;;;8.82;;
81310;SDS011;70779;52.506;5.492;2023-09-12T17:02:08;13.35;;;7.63;;
81310;SDS011;70779;52.506;5.492;2023-09-12T17:04:35;10.90;;;8.02;;
81310;SDS011;70779;52.506;5.492;2023-09-12T17:07:02;11.18;;;8.40;;
81310;SDS011;70779;52.506;5.492;2023-09-12T17:09:28;11.15;;;8.48;;
81310;SDS011;70779;52.506;5.492;2023-09-12T17:11:54;12.02;;;7.78;;
81310;SDS011;70779;52.506;5.492;2023-09-12T17:14:20;12.05;;;7.45;;
81310;SDS011;70779;52.506;5.492;2023-09-12T17:16:46;9.68;;;8.07;;
81310;SDS011;70779;52.506;5.492;2023-09-12T17:19:12;10.15;;;8.40;;
81310;SDS011;70779;52.506;5.492;2023-09-12T17:21:39;10.15;;;7.60;;
81310;SDS011;70779;52.506;5.492;2023-09-12T17:24:05;9.68;;;7.78;;
81310;SDS011;70779;52.506;5.492;2023-09-12T17:26:31;8.85;;;6.85;;
81310;SDS011;70779;52.506;5.492;2023-09-12T17:28:57;8.55;;;6.50;;
81310;SDS011;70779;52.506;5.492;2023-09-12T17:31:24;6.85;;;5.20;;
81310;SDS011;70779;52.506;5.492;2023-09-12T17:33:51;6.03;;;5.18;;
81310;SDS011;70779;52.506;5.492;2023-09-12T17:36:17;7.05;;;4.95;;
81310;SDS011;70779;52.506;5.492;2023-09-12T17:38:43;8.60;;;5.20;;
81310;SDS011;70779;52.506;5.492;2023-09-12T17:41:09;6.55;;;4.53;;
81310;SDS011;70779;52.506;5.492;2023-09-12T17:43:35;8.15;;;5.68;;
81310;SDS011;70779;52.506;5.492;2023-09-12T17:46:02;8.07;;;4.72;;
81310;SDS011;70779;52.506;5.492;2023-09-12T17:48:28;9.32;;;5.43;;
81310;SDS011;70779;52.506;5.492;2023-09-12T17:50:54;8.77;;;5.20;;
81310;SDS011;70779;52.506;5.492;2023-09-12T17:53:20;10.65;;;6.43;;
81310;SDS011;70779;52.506;5.492;2023-09-12T17:55:51;10.90;;;5.80;;
81310;SDS011;70779;52.506;5.492;2023-09-12T17:58:20;10.00;;;6.55;;
81310;SDS011;70779;52.506;5.492;2023-09-12T18:00:56;9.23;;;5.88;;
81310;SDS011;70779;52.506;5.492;2023-09-12T18:03:22;9.95;;;6.43;;
81310;SDS011;70779;52.506;5.492;2023-09-12T18:05:49;12.05;;;6.68;;
81310;SDS011;70779;52.506;5.492;2023-09-12T18:08:15;9.10;;;6.32;;
81310;SDS011;70779;52.506;5.492;2023-09-12T18:10:41;11.18;;;6.32;;
81310;SDS011;70779;52.506;5.492;2023-09-12T18:13:07;10.45;;;7.47;;
81310;SDS011;70779;52.506;5.492;2023-09-12T18:15:33;10.50;;;6.97;;
81310;SDS011;70779;52.506;5.492;2023-09-12T18:17:59;9.85;;;7.07;;
81310;SDS011;70779;52.506;5.492;2023-09-12T18:20:26;12.02;;;7.50;;
81310;SDS011;70779;52.506;5.492;2023-09-12T18:22:52;9.82;;;7.88;;
81310;SDS011;70779;52.506;5.492;2023-09-12T18:25:18;13.60;;;7.45;;
81310;SDS011;70779;52.506;5.492;2023-09-12T18:27:44;11.10;;;6.82;;
81310;SDS011;70779;52.506;5.492;2023-09-12T18:30:10;9.93;;;6.95;;
81310;SDS011;70779;52.506;5.492;2023-09-12T18:32:40;11.15;;;7.07;;
81310;SDS011;70779;52.506;5.492;2023-09-12T18:35:06;11.48;;;7.28;;
81310;SDS011;70779;52.506;5.492;2023-09-12T18:37:34;9.52;;;7.55;;
81310;SDS011;70779;52.506;5.492;2023-09-12T18:40:00;10.48;;;7.35;;
81310;SDS011;70779;52.506;5.492;2023-09-12T18:42:26;11.60;;;7.03;;
81310;SDS011;70779;52.506;5.492;2023-09-12T18:44:52;13.40;;;7.68;;
81310;SDS011;70779;52.506;5.492;2023-09-12T18:47:19;10.32;;;7.35;;
81310;SDS011;70779;52.506;5.492;2023-09-12T18:49:45;14.07;;;7.72;;
81310;SDS011;70779;52.506;5.492;2023-09-12T18:52:11;9.48;;;7.22;;
81310;SDS011;70779;52.506;5.492;2023-09-12T18:54:37;12.20;;;6.65;;
81310;SDS011;70779;52.506;5.492;2023-09-12T18:57:10;12.27;;;7.15;;
81310;SDS011;70779;52.506;5.492;2023-09-12T18:59:37;12.25;;;6.68;;
81310;SDS011;70779;52.506;5.492;2023-09-12T19:02:04;11.57;;;6.90;;
81310;SDS011;70779;52.506;5.492;2023-09-12T19:04:30;10.00;;;6.65;;
81310;SDS011;70779;52.506;5.492;2023-09-12T19:06:56;8.80;;;6.00;;
81310;SDS011;70779;52.506;5.492;2023-09-12T19:09:22;8.75;;;6.85;;
81310;SDS011;70779;52.506;5.492;2023-09-12T19:11:49;10.23;;;7.03;;
81310;SDS011;70779;52.506;5.492;2023-09-12T19:14:16;10.32;;;7.18;;
81310;SDS011;70779;52.506;5.492;2023-09-12T19:16:42;10.43;;;6.82;;
81310;SDS011;70779;52.506;5.492;2023-09-12T19:19:08;11.98;;;7.57;;
81310;SDS011;70779;52.506;5.492;2023-09-12T19:21:35;9.10;;;7.07;;
81310;SDS011;70779;52.506;5.492;2023-09-12T19:24:01;9.52;;;6.95;;
81310;SDS011;70779;52.506;5.492;2023-09-12T19:26:30;9.45;;;6.82;;
81310;SDS011;70779;52.506;5.492;2023-09-12T19:29:00;11.07;;;6.50;;
81310;SDS011;70779;52.506;5.492;2023-09-12T19:31:27;9.80;;;6.82;;
81310;SDS011;70779;52.506;5.492;2023-09-12T19:33:53;10.93;;;7.05;;